Time;durP1;ratioP1;P1;durP2;ratioP2;P2;SDS_P1;SDS_P2;PMS_P1;PMS_P2;Temp;Humidity;BMP_temperature;BMP_pressure;BME280_temperature;BME280_humidity;BME280_pressure;Samples;Min_cycle;Max_cycle;Signal;HPM_P1;HPM_P2
2023/01/18 00:00:46;;;;;;;4.60;2.60;;;0.30;99.90;;;;;;5102666;28;20394;-74
2023/01/18 00:03:12;;;;;;;4.28;2.50;;;0.30;99.90;;;;;;5080038;28;20038;-74
2023/01/18 00:05:42;;;;;;;3.63;2.53;;;0.30;99.90;;;;;;5075161;28;20135;-74
2023/01/18 00:08:09;;;;;;;4.93;2.72;;;0.30;99.90;;;;;;5069832;28;20552;-74
2023/01/18 00:10:35;;;;;;;6.50;2.95;;;0.30;99.90;;;;;;5085060;28;20051;-74
2023/01/18 00:13:00;;;;;;;3.97;2.78;;;0.30;99.90;;;;;;5073554;28;20047;-74
2023/01/18 00:15:26;;;;;;;3.88;2.35;;;0.40;99.90;;;;;;5098720;28;20051;-74
2023/01/18 00:17:52;;;;;;;6.28;3.03;;;0.40;99.90;;;;;;5092456;28;20050;-74
2023/01/18 00:20:20;;;;;;;6.25;3.60;;;0.40;99.90;;;;;;5091828;28;20043;-74
2023/01/18 00:22:46;;;;;;;4.80;2.72;;;0.40;99.90;;;;;;5091631;28;20047;-74
2023/01/18 00:25:11;;;;;;;4.22;2.85;;;0.40;99.90;;;;;;5090500;28;20031;-74
2023/01/18 00:27:38;;;;;;;4.00;2.40;;;0.40;99.90;;;;;;5075075;28;20499;-74
2023/01/18 00:30:06;;;;;;;3.30;2.30;;;0.40;99.90;;;;;;5096037;28;20062;-74
2023/01/18 00:32:32;;;;;;;4.22;2.35;;;0.40;99.90;;;;;;5080810;28;20609;-74
2023/01/18 00:34:59;;;;;;;3.75;2.67;;;0.40;99.90;;;;;;5092003;28;20060;-74
2023/01/18 00:37:25;;;;;;;5.32;2.80;;;0.40;99.90;;;;;;5091506;28;20044;-74
2023/01/18 00:39:51;;;;;;;4.63;2.55;;;0.40;99.90;;;;;;5075223;28;20484;-74
2023/01/18 00:45:01;;;;;;;3.78;2.75;;;0.40;99.90;;;;;;5091959;28;20390;-74
2023/01/18 00:47:27;;;;;;;4.05;2.88;;;0.50;99.90;;;;;;5095154;28;20095;-74
2023/01/18 00:49:53;;;;;;;4.10;2.50;;;0.50;99.90;;;;;;5078726;28;20494;-74
2023/01/18 00:52:18;;;;;;;3.58;2.50;;;0.50;99.90;;;;;;5095098;28;20808;-74
2023/01/18 00:54:44;;;;;;;3.58;2.22;;;0.50;99.90;;;;;;5095543;28;20447;-74
2023/01/18 00:57:10;;;;;;;4.30;2.30;;;0.50;99.90;;;;;;5094840;28;20444;-74
2023/01/18 00:59:35;;;;;;;3.17;2.30;;;0.50;99.90;;;;;;5094688;28;20039;-74
2023/01/18 01:02:01;;;;;;;4.45;2.40;;;0.50;99.90;;;;;;5095347;28;20039;-74
2023/01/18 01:07:11;;;;;;;3.55;2.30;;;0.50;99.90;;;;;;5094577;28;20364;-74
2023/01/18 01:09:37;;;;;;;3.43;1.90;;;0.50;99.90;;;;;;5077705;28;20055;-74
2023/01/18 01:26:07;;;;;;;2.22;1.50;;;0.20;99.90;;;;;;5095054;28;20494;-74
2023/01/18 01:28:49;;;;;;;2.22;1.48;;;0.10;99.90;;;;;;5112678;28;20181;-74
2023/01/18 01:31:16;;;;;;;2.38;1.50;;;0.00;99.90;;;;;;5077543;28;20043;-74
2023/01/18 01:33:43;;;;;;;;;;;0.00;99.90;;;;;;5095005;28;20135;-75
2023/01/18 01:36:12;;;;;;;1.73;1.30;;;0.00;99.90;;;;;;5099878;28;19920;-75
2023/01/18 01:38:40;;;;;;;2.17;1.58;;;0.00;99.90;;;;;;5094835;28;20470;-75
2023/01/18 01:41:25;;;;;;;2.72;1.73;;;0.00;99.90;;;;;;5076774;28;20038;-75
2023/01/18 01:43:56;;;;;;;2.00;1.50;;;-0.10;99.90;;;;;;5092620;28;20119;-74
2023/01/18 01:46:43;;;;;;;2.78;1.90;;;-0.10;99.90;;;;;;5094791;28;20047;-74
2023/01/18 01:49:20;;;;;;;3.30;2.05;;;0.00;99.90;;;;;;5089215;28;20054;-74
2023/01/18 01:52:03;;;;;;;3.75;2.10;;;0.00;99.90;;;;;;5094226;28;20573;-74
2023/01/18 01:54:33;;;;;;;3.65;2.38;;;0.00;99.90;;;;;;5094035;28;20061;-74
2023/01/18 01:57:11;;;;;;;4.03;2.00;;;0.10;99.90;;;;;;5092994;28;20046;-74
2023/01/18 01:59:43;;;;;;;3.45;2.00;;;0.10;99.90;;;;;;5076973;28;20100;-74
2023/01/18 02:02:10;;;;;;;3.75;2.00;;;0.00;99.90;;;;;;5090607;28;20080;-74
2023/01/18 02:04:36;;;;;;;2.75;1.67;;;0.10;99.90;;;;;;5090337;27;20043;-74
2023/01/18 02:07:02;;;;;;;2.00;1.50;;;0.10;99.90;;;;;;5102144;27;20122;-74
2023/01/18 02:09:28;;;;;;;2.45;1.70;;;0.10;99.90;;;;;;5096208;28;20136;-74
2023/01/18 02:11:54;;;;;;;2.58;1.85;;;0.10;99.90;;;;;;5092440;27;20039;-74
2023/01/18 02:14:23;;;;;;;3.42;2.00;;;0.10;99.90;;;;;;5091132;27;20071;-74
2023/01/18 02:16:52;;;;;;;2.97;1.80;;;0.20;99.90;;;;;;5095851;27;20094;-74
2023/01/18 02:19:45;;;;;;;4.32;1.77;;;0.10;99.90;;;;;;5101399;28;20470;-74
2023/01/18 02:22:22;;;;;;;3.10;1.30;;;0.20;99.90;;;;;;5103208;27;20137;-74
2023/01/18 02:24:56;;;;;;;;;;;0.10;99.90;;;;;;5100423;28;20031;-74
2023/01/18 02:27:26;;;;;;;4.55;2.30;;;0.20;99.90;;;;;;5093700;28;19922;-74
2023/01/18 02:30:00;;;;;;;3.15;2.33;;;0.30;99.90;;;;;;5097370;28;20066;-74
2023/01/18 02:32:34;;;;;;;3.50;2.20;;;0.30;99.90;;;;;;5103380;27;20088;-74
2023/01/18 02:35:10;;;;;;;2.85;2.00;;;0.30;99.90;;;;;;5095562;28;20066;-74
2023/01/18 02:37:55;;;;;;;3.45;2.58;;;0.40;99.90;;;;;;5091302;28;20059;-74
2023/01/18 02:40:38;;;;;;;3.45;2.65;;;0.40;99.90;;;;;;5093002;28;20537;-74
2023/01/18 02:48:42;;;;;;;4.63;2.90;;;0.60;99.90;;;;;;5101580;28;20362;-74
2023/01/18 02:51:09;;;;;;;5.22;2.92;;;0.70;99.90;;;;;;5096514;27;20096;-75
2023/01/18 02:53:42;;;;;;;5.85;3.15;;;0.70;99.90;;;;;;5100142;28;20094;-75
2023/01/18 02:56:10;;;;;;;3.97;3.03;;;0.70;99.90;;;;;;5094839;28;20035;-75
2023/01/18 02:58:56;;;;;;;5.15;3.25;;;0.60;99.90;;;;;;5091258;28;20402;-75
2023/01/18 03:01:28;;;;;;;5.32;3.40;;;0.70;99.90;;;;;;5099707;28;20126;-74
2023/01/18 03:03:58;;;;;;;7.65;3.60;;;0.70;99.90;;;;;;5075471;28;20421;-74
2023/01/18 03:06:28;;;;;;;5.10;2.92;;;0.70;99.90;;;;;;5092785;28;20369;-74
2023/01/18 03:08:55;;;;;;;4.43;2.70;;;0.60;99.90;;;;;;5077836;28;20039;-75
2023/01/18 03:11:26;;;;;;;3.53;3.03;;;0.60;99.90;;;;;;5075405;28;20088;-74
2023/01/18 03:13:52;;;;;;;4.00;2.80;;;0.50;99.90;;;;;;5100188;27;20043;-75
2023/01/18 03:16:22;;;;;;;5.00;3.23;;;0.50;99.90;;;;;;5097983;28;20116;-75
2023/01/18 03:19:01;;;;;;;4.55;2.83;;;0.40;99.90;;;;;;5108135;27;20807;-75
2023/01/18 03:21:41;;;;;;;5.93;3.30;;;0.40;99.90;;;;;;5099139;28;20058;-75
2023/01/18 03:24:08;;;;;;;4.63;3.20;;;0.30;99.90;;;;;;5092622;28;20425;-75
2023/01/18 03:26:41;;;;;;;5.65;3.75;;;0.30;99.90;;;;;;5095367;27;20051;-75
2023/01/18 03:34:58;;;;;;;4.90;3.13;;;0.20;99.90;;;;;;5105017;28;20070;-74
2023/01/18 03:37:31;;;;;;;4.57;3.35;;;0.20;99.90;;;;;;5097603;27;20047;-74
2023/01/18 03:40:01;;;;;;;3.50;2.50;;;0.20;99.90;;;;;;5099997;28;20078;-74
2023/01/18 03:42:36;;;;;;;6.82;3.70;;;0.20;99.90;;;;;;5090713;28;20066;-75
2023/01/18 03:45:11;;;;;;;5.57;3.53;;;0.20;99.90;;;;;;5091723;28;20039;-74
2023/01/18 03:47:38;;;;;;;4.65;3.10;;;0.20;99.90;;;;;;5088720;28;20091;-74
2023/01/18 03:50:04;;;;;;;3.65;2.95;;;0.20;99.90;;;;;;5067623;28;20059;-74
2023/01/18 03:52:43;;;;;;;5.65;3.75;;;0.20;99.90;;;;;;5091766;28;20048;-74
2023/01/18 03:55:19;;;;;;;5.13;3.10;;;0.10;99.90;;;;;;5110556;28;20039;-75
2023/01/18 03:57:59;;;;;;;4.43;3.22;;;0.10;99.90;;;;;;5083225;28;20031;-74
2023/01/18 04:00:25;;;;;;;5.35;3.58;;;0.10;99.90;;;;;;5091723;28;20359;-74
2023/01/18 04:02:51;;;;;;;3.88;3.20;;;0.10;99.90;;;;;;5092962;28;20096;-74
2023/01/18 04:05:17;;;;;;;4.07;3.50;;;0.10;99.90;;;;;;5097075;28;20459;-74
2023/01/18 04:07:43;;;;;;;4.75;3.53;;;0.10;99.90;;;;;;5097217;28;20126;-74
2023/01/18 04:10:10;;;;;;;6.38;3.95;;;0.10;99.90;;;;;;5091852;28;20104;-74
2023/01/18 04:12:35;;;;;;;;;;;0.00;99.90;;;;;;5097408;28;20051;-74
2023/01/18 04:15:03;;;;;;;4.63;3.60;;;0.00;99.90;;;;;;5112164;28;20002;-74
2023/01/18 04:17:28;;;;;;;4.30;3.60;;;0.00;99.90;;;;;;5073850;28;20471;-74
2023/01/18 04:19:54;;;;;;;4.05;3.35;;;0.00;99.90;;;;;;5098493;28;20036;-74
2023/01/18 04:22:20;;;;;;;4.47;3.00;;;0.00;99.90;;;;;;5077439;28;20040;-74
2023/01/18 04:24:45;;;;;;;4.38;3.20;;;0.00;99.90;;;;;;5111853;28;20062;-74
2023/01/18 04:27:11;;;;;;;3.87;2.63;;;0.00;99.90;;;;;;5096341;28;20074;-74
2023/01/18 04:29:37;;;;;;;4.10;3.38;;;0.00;99.90;;;;;;5096234;28;20784;-74
2023/01/18 04:32:04;;;;;;;5.18;3.95;;;0.00;99.90;;;;;;5095647;28;20048;-74
2023/01/18 04:34:30;;;;;;;5.88;3.75;;;0.00;99.90;;;;;;5096321;27;20127;-75
2023/01/18 04:36:56;;;;;;;5.50;4.10;;;0.00;99.90;;;;;;5073512;27;20130;-74
2023/01/18 04:39:22;;;;;;;5.60;3.45;;;0.00;99.90;;;;;;5105257;28;20036;-74
2023/01/18 04:41:48;;;;;;;5.82;3.90;;;0.00;99.90;;;;;;5095426;27;20047;-74
2023/01/18 04:44:14;;;;;;;7.93;4.05;;;0.00;99.90;;;;;;5101920;28;20039;-74
2023/01/18 04:46:40;;;;;;;6.80;5.28;;;0.00;99.90;;;;;;5095796;28;20047;-74
2023/01/18 04:49:11;;;;;;;8.02;4.65;;;0.10;99.90;;;;;;5098649;27;20114;-74
2023/01/18 04:51:37;;;;;;;6.07;4.25;;;0.10;99.90;;;;;;5109401;27;20055;-74
2023/01/18 04:54:03;;;;;;;5.88;4.35;;;0.10;99.90;;;;;;5082586;28;20410;-74
2023/01/18 04:56:29;;;;;;;5.88;4.53;;;0.20;99.90;;;;;;5100802;27;20035;-74
2023/01/18 04:58:55;;;;;;;6.38;4.50;;;0.10;99.90;;;;;;5107740;28;20108;-74
2023/01/18 05:01:21;;;;;;;5.32;4.38;;;0.20;99.90;;;;;;5079274;28;20040;-74
2023/01/18 05:03:47;;;;;;;6.55;4.20;;;0.10;99.90;;;;;;5094277;28;20049;-74
2023/01/18 05:06:15;;;;;;;7.65;5.00;;;0.20;99.90;;;;;;5094851;28;20043;-74
2023/01/18 05:08:41;;;;;;;6.28;4.38;;;0.20;99.90;;;;;;5097343;28;20122;-74
2023/01/18 05:11:08;;;;;;;;;;;0.20;99.90;;;;;;5089487;28;20096;-74
2023/01/18 05:13:34;;;;;;;5.70;4.25;;;0.20;99.90;;;;;;5095626;28;19931;-74
2023/01/18 05:16:00;;;;;;;7.47;5.47;;;0.30;99.90;;;;;;5095364;28;20040;-74
2023/01/18 05:18:26;;;;;;;8.68;5.47;;;0.30;99.90;;;;;;5101000;27;20070;-74
2023/01/18 05:20:52;;;;;;;5.57;4.43;;;0.30;99.90;;;;;;5065180;28;20471;-75
2023/01/18 05:23:18;;;;;;;6.20;4.43;;;0.40;99.90;;;;;;5098154;28;20050;-75
2023/01/18 05:25:44;;;;;;;8.95;6.10;;;0.30;99.90;;;;;;5090809;28;20482;-75
2023/01/18 05:28:09;;;;;;;10.80;6.32;;;0.40;99.90;;;;;;5103878;27;20153;-75
2023/01/18 05:30:40;;;;;;;9.30;6.68;;;0.40;99.90;;;;;;5099417;27;20043;-74
2023/01/18 05:33:08;;;;;;;9.68;6.60;;;0.40;99.90;;;;;;5113206;27;20046;-74
2023/01/18 05:35:34;;;;;;;8.48;6.40;;;0.50;99.90;;;;;;5095964;28;20151;-74
2023/01/18 05:37:59;;;;;;;9.45;6.45;;;0.50;99.90;;;;;;5094033;28;20047;-74
2023/01/18 05:40:26;;;;;;;7.60;5.75;;;0.50;99.90;;;;;;5100067;27;20077;-74
2023/01/18 05:42:52;;;;;;;11.65;6.85;;;0.50;99.90;;;;;;5086303;28;20031;-74
2023/01/18 05:45:18;;;;;;;;;;;0.50;99.90;;;;;;5087829;27;20054;-74
2023/01/18 05:47:44;;;;;;;8.73;6.25;;;0.50;99.90;;;;;;5095774;28;19927;-75
2023/01/18 05:50:11;;;;;;;8.75;6.22;;;0.50;99.90;;;;;;5103510;27;20046;-75
2023/01/18 05:52:37;;;;;;;8.65;6.30;;;0.50;99.90;;;;;;5113678;27;20075;-74
2023/01/18 05:55:03;;;;;;;7.65;5.97;;;0.50;99.90;;;;;;5100844;28;20035;-74
2023/01/18 05:57:29;;;;;;;10.15;7.07;;;0.50;99.90;;;;;;5075931;28;20143;-75
2023/01/18 05:59:54;;;;;;;8.68;6.70;;;0.50;99.90;;;;;;5088010;28;20154;-75
2023/01/18 06:02:20;;;;;;;10.80;6.60;;;0.50;99.90;;;;;;5090181;28;20071;-75
2023/01/18 06:04:46;;;;;;;10.13;6.95;;;0.50;99.90;;;;;;5091935;28;20127;-75
2023/01/18 06:07:13;;;;;;;10.98;6.82;;;0.40;99.90;;;;;;5090214;27;20047;-75
2023/01/18 06:09:39;;;;;;;11.65;7.18;;;0.50;99.90;;;;;;5075834;28;20043;-75
2023/01/18 06:12:05;;;;;;;8.13;6.15;;;0.50;99.90;;;;;;5088782;28;20565;-75
2023/01/18 06:14:31;;;;;;;8.95;6.38;;;0.40;99.90;;;;;;5093290;28;20076;-75
2023/01/18 06:16:57;;;;;;;8.27;5.65;;;0.40;99.90;;;;;;5092707;28;20063;-75
2023/01/18 06:19:23;;;;;;;6.40;4.95;;;0.40;99.90;;;;;;5093662;28;20181;-75
2023/01/18 06:21:48;;;;;;;8.27;5.03;;;0.40;99.90;;;;;;5093123;28;20039;-75
2023/01/18 06:24:14;;;;;;;8.50;6.20;;;0.40;99.90;;;;;;5093978;28;20031;-75
2023/01/18 06:26:40;;;;;;;9.45;5.63;;;0.40;99.90;;;;;;5060651;28;20035;-75
2023/01/18 06:29:06;;;;;;;8.35;5.97;;;0.40;99.90;;;;;;5094205;28;20464;-75
2023/01/18 06:31:31;;;;;;;7.95;6.03;;;0.40;99.90;;;;;;5090420;27;20043;-75
2023/01/18 06:33:57;;;;;;;7.88;5.97;;;0.40;99.90;;;;;;5101224;28;20117;-75
2023/01/18 06:36:23;;;;;;;6.55;4.63;;;0.40;99.90;;;;;;5090966;28;20070;-75
2023/01/18 06:38:48;;;;;;;8.88;6.28;;;0.40;99.90;;;;;;5093392;28;20050;-74
2023/01/18 06:41:14;;;;;;;9.40;5.95;;;0.40;99.90;;;;;;5092991;27;20073;-74
2023/01/18 06:43:40;;;;;;;7.90;5.47;;;0.40;99.90;;;;;;5094415;28;20055;-74
2023/01/18 06:46:08;;;;;;;7.70;5.72;;;0.40;99.90;;;;;;5076082;28;20043;-74
2023/01/18 06:48:34;;;;;;;8.18;6.32;;;0.40;99.90;;;;;;5092380;28;20075;-74
2023/01/18 06:51:00;;;;;;;5.95;4.45;;;0.50;99.90;;;;;;5089971;28;20525;-74
2023/01/18 06:53:25;;;;;;;9.45;5.57;;;0.50;99.90;;;;;;5073879;28;20131;-74
2023/01/18 06:56:00;;;;;;;12.20;6.88;;;0.50;99.90;;;;;;5090514;28;20031;-74
2023/01/18 06:58:27;;;;;;;8.65;6.53;;;0.60;99.90;;;;;;5125628;27;20043;-74
2023/01/18 07:00:53;;;;;;;;;;;0.50;99.90;;;;;;5084631;27;20046;-78
2023/01/18 07:03:19;;;;;;;11.98;7.53;;;0.60;99.90;;;;;;5088990;28;19970;-78
2023/01/18 07:05:45;;;;;;;9.23;5.93;;;0.60;99.90;;;;;;5088778;28;20075;-78
2023/01/18 07:08:11;;;;;;;11.20;6.97;;;0.60;99.90;;;;;;5078510;28;20043;-78
2023/01/18 07:10:37;;;;;;;12.23;7.63;;;0.60;99.90;;;;;;5090278;28;20127;-77
2023/01/18 07:13:03;;;;;;;9.70;7.03;;;0.60;99.90;;;;;;5073305;27;20150;-78
2023/01/18 07:15:29;;;;;;;11.43;7.22;;;0.60;99.90;;;;;;5092350;27;20186;-78
2023/01/18 07:17:54;;;;;;;10.93;7.35;;;0.60;99.90;;;;;;5113726;27;20131;-78
2023/01/18 07:20:20;;;;;;;9.50;7.43;;;0.60;99.90;;;;;;5111459;27;20061;-78
2023/01/18 07:22:52;;;;;;;7.18;5.38;;;0.60;99.90;;;;;;5095166;27;20051;-78
2023/01/18 07:25:19;;;;;;;12.55;8.23;;;0.60;99.90;;;;;;5097419;28;20126;-78
2023/01/18 07:27:47;;;;;;;14.00;8.32;;;0.60;99.90;;;;;;5076732;28;20035;-78
2023/01/18 07:30:13;;;;;;;10.55;7.57;;;0.60;99.90;;;;;;5095898;27;20458;-78
2023/01/18 07:32:45;;;;;;;11.40;6.72;;;0.60;99.90;;;;;;5107421;27;20050;-78
2023/01/18 07:35:11;;;;;;;9.57;6.97;;;0.60;99.90;;;;;;5099744;27;20239;-77
2023/01/18 07:37:37;;;;;;;10.85;7.40;;;0.60;99.90;;;;;;5081601;28;20044;-76
2023/01/18 07:40:03;;;;;;;10.02;6.80;;;0.70;99.90;;;;;;5081617;28;20489;-76
2023/01/18 07:42:29;;;;;;;14.00;8.82;;;0.70;99.90;;;;;;5081392;28;20083;-77
2023/01/18 07:44:55;;;;;;;13.50;8.32;;;0.70;99.90;;;;;;5079932;28;20043;-76
2023/01/18 07:47:20;;;;;;;11.23;7.60;;;0.70;99.90;;;;;;5070108;28;20051;-75
2023/01/18 07:49:46;;;;;;;9.65;6.55;;;0.70;99.90;;;;;;5092369;28;20047;-74
2023/01/18 07:52:11;;;;;;;10.43;7.00;;;0.70;99.90;;;;;;5077278;28;20044;-74
2023/01/18 07:54:37;;;;;;;10.13;7.33;;;0.70;99.90;;;;;;5087898;28;20304;-74
2023/01/18 07:57:03;;;;;;;10.00;7.30;;;0.70;99.90;;;;;;5106735;28;20292;-74
2023/01/18 07:59:31;;;;;;;8.75;6.20;;;0.70;99.90;;;;;;5106290;28;20051;-74
2023/01/18 08:01:57;;;;;;;8.63;5.95;;;0.70;99.90;;;;;;5081872;28;20482;-75
2023/01/18 08:04:23;;;;;;;9.30;7.03;;;0.60;99.90;;;;;;5087177;28;20045;-75
2023/01/18 08:06:50;;;;;;;10.82;6.88;;;0.70;99.90;;;;;;5086527;28;20474;-75
2023/01/18 08:09:16;;;;;;;9.02;5.82;;;0.70;99.90;;;;;;5088682;28;20040;-75
2023/01/18 08:11:42;;;;;;;7.65;5.82;;;0.70;99.90;;;;;;5086739;28;20122;-75
2023/01/18 08:14:07;;;;;;;9.15;5.53;;;0.70;99.90;;;;;;5103528;28;20133;-75
2023/01/18 08:16:33;;;;;;;8.88;5.38;;;0.70;99.90;;;;;;5094954;28;20044;-74
2023/01/18 08:18:59;;;;;;;9.15;5.38;;;0.70;99.90;;;;;;5076146;28;20042;-73
2023/01/18 08:21:24;;;;;;;9.47;5.43;;;0.70;99.90;;;;;;5098480;28;20058;-74
2023/01/18 08:23:53;;;;;;;8.88;6.03;;;0.70;99.90;;;;;;5080431;28;20300;-74
2023/01/18 08:26:19;;;;;;;7.30;5.38;;;0.70;99.90;;;;;;5091853;28;20087;-74
2023/01/18 08:28:45;;;;;;;9.23;5.60;;;0.80;99.90;;;;;;5104108;28;20035;-75
2023/01/18 08:31:18;;;;;;;8.90;5.85;;;0.80;99.90;;;;;;5073958;28;20074;-74
2023/01/18 08:33:46;;;;;;;9.93;6.38;;;0.90;99.90;;;;;;5080374;28;20040;-75
2023/01/18 08:36:17;;;;;;;9.57;5.72;;;1.00;99.90;;;;;;5097720;28;20044;-75
2023/01/18 08:38:48;;;;;;;10.65;5.93;;;1.00;99.90;;;;;;5070081;28;20372;-75
2023/01/18 08:41:13;;;;;;;8.75;5.70;;;1.00;99.90;;;;;;5090860;28;20036;-75
2023/01/18 08:43:39;;;;;;;9.15;5.15;;;1.10;99.90;;;;;;5081344;28;20049;-75
2023/01/18 08:46:05;;;;;;;7.22;5.32;;;1.10;99.90;;;;;;5075425;28;20071;-75
2023/01/18 08:48:31;;;;;;;7.03;5.30;;;1.10;99.90;;;;;;5091760;28;20047;-74
2023/01/18 08:51:01;;;;;;;9.60;6.20;;;1.20;99.90;;;;;;5086006;28;20444;-74
2023/01/18 08:53:27;;;;;;;11.52;6.38;;;1.30;99.90;;;;;;5093572;28;20084;-74
2023/01/18 08:55:53;;;;;;;9.75;5.82;;;1.30;99.90;;;;;;5110078;28;20080;-75
2023/01/18 08:58:19;;;;;;;8.57;5.15;;;1.30;99.90;;;;;;5094739;28;20120;-74
2023/01/18 09:00:44;;;;;;;7.82;5.10;;;1.30;99.90;;;;;;5090932;28;20639;-74
2023/01/18 09:03:11;;;;;;;9.95;5.60;;;1.20;99.90;;;;;;5096768;28;20047;-74
2023/01/18 09:05:39;;;;;;;8.73;5.97;;;1.20;99.90;;;;;;5081594;28;20398;-75
2023/01/18 09:08:04;;;;;;;9.27;6.00;;;1.30;99.90;;;;;;5091985;28;20055;-74
2023/01/18 09:10:31;;;;;;;13.30;6.25;;;1.40;99.90;;;;;;5090900;28;20051;-74
2023/01/18 09:12:57;;;;;;;8.05;5.60;;;1.40;99.90;;;;;;5073877;28;20066;-75
2023/01/18 09:15:23;;;;;;;8.77;5.85;;;1.40;99.90;;;;;;5092829;28;20031;-74
2023/01/18 09:17:48;;;;;;;10.17;6.30;;;1.50;99.90;;;;;;5074093;28;20135;-75
2023/01/18 09:20:14;;;;;;;8.48;5.90;;;1.50;99.90;;;;;;5091723;27;20303;-74
2023/01/18 09:22:41;;;;;;;9.38;5.20;;;1.50;99.90;;;;;;5077847;28;20043;-74
2023/01/18 09:25:07;;;;;;;9.98;6.00;;;1.50;99.90;;;;;;5086791;27;20123;-74
2023/01/18 09:27:33;;;;;;;8.93;5.78;;;1.60;99.90;;;;;;5100322;28;20052;-74
2023/01/18 09:29:59;;;;;;;10.20;5.80;;;1.50;99.90;;;;;;5077920;28;20054;-75
2023/01/18 09:32:26;;;;;;;9.02;5.65;;;1.60;99.90;;;;;;5090928;28;20499;-75
2023/01/18 09:34:51;;;;;;;8.95;5.35;;;1.60;99.90;;;;;;5078827;28;20077;-75
2023/01/18 09:37:18;;;;;;;7.53;5.25;;;1.60;99.90;;;;;;5076458;28;20754;-75
2023/01/18 09:39:43;;;;;;;10.32;5.40;;;1.60;99.90;;;;;;5093425;28;20166;-74
2023/01/18 09:42:23;;;;;;;8.40;5.32;;;1.70;99.90;;;;;;5095284;28;20486;-75
2023/01/18 09:44:52;;;;;;;9.63;5.30;;;1.70;99.90;;;;;;5094183;28;20041;-75
2023/01/18 09:47:29;;;;;;;6.80;5.15;;;1.70;99.90;;;;;;5090715;28;20035;-75
2023/01/18 09:49:57;;;;;;;8.38;5.10;;;1.70;99.90;;;;;;5091390;28;20047;-74
2023/01/18 09:52:38;;;;;;;8.27;5.38;;;1.70;99.90;;;;;;5114155;27;20980;-74
2023/01/18 09:55:26;;;;;;;9.50;5.32;;;1.80;99.90;;;;;;5081601;28;20036;-74
2023/01/18 09:58:29;;;;;;;8.65;5.15;;;1.80;99.90;;;;;;5071620;28;20048;-74
2023/01/18 10:01:01;;;;;;;8.00;5.50;;;1.90;99.90;;;;;;5109804;28;20032;-74
2023/01/18 10:03:44;;;;;;;7.45;5.50;;;1.90;99.90;;;;;;5086831;28;20047;-74
2023/01/18 10:06:16;;;;;;;10.32;5.43;;;2.00;99.90;;;;;;5096107;28;20039;-74
2023/01/18 10:08:42;;;;;;;7.57;5.35;;;2.00;99.90;;;;;;5097273;28;20047;-74
2023/01/18 10:11:28;;;;;;;8.27;5.03;;;2.00;99.90;;;;;;5096898;27;20049;-74
2023/01/18 10:14:04;;;;;;;9.67;5.67;;;2.00;99.90;;;;;;5091438;28;20100;-74
2023/01/18 10:16:32;;;;;;;8.43;5.60;;;2.00;99.90;;;;;;5097833;27;20051;-74
2023/01/18 10:18:57;;;;;;;9.73;6.07;;;2.00;99.90;;;;;;5093169;28;20053;-74
2023/01/18 10:21:41;;;;;;;10.68;5.45;;;2.00;99.90;;;;;;5095672;28;20031;-74
2023/01/18 10:24:32;;;;;;;8.13;5.72;;;2.10;99.90;;;;;;5089479;28;20039;-75
2023/01/18 10:27:16;;;;;;;10.75;6.05;;;2.10;99.90;;;;;;5092087;28;20048;-75
2023/01/18 10:29:51;;;;;;;9.18;5.82;;;2.10;99.90;;;;;;5073509;28;20047;-74
2023/01/18 10:32:20;;;;;;;7.93;5.60;;;2.10;99.90;;;;;;5088521;28;20040;-74
2023/01/18 10:34:50;;;;;;;8.15;5.13;;;2.20;99.90;;;;;;5091781;28;20870;-75
2023/01/18 10:37:36;;;;;;;8.52;5.00;;;2.20;99.90;;;;;;5073753;28;20040;-74
2023/01/18 10:40:06;;;;;;;7.32;5.63;;;2.30;99.90;;;;;;5088916;28;20252;-71
2023/01/18 10:42:39;;;;;;;8.35;5.72;;;2.30;99.90;;;;;;5088360;28;20044;-73
2023/01/18 10:45:20;;;;;;;8.98;6.20;;;2.30;99.90;;;;;;5087905;28;20078;-73
2023/01/18 10:47:47;;;;;;;7.65;5.03;;;2.40;99.90;;;;;;5061499;28;20052;-74
2023/01/18 10:50:17;;;;;;;7.20;5.63;;;2.50;99.90;;;;;;5088467;28;20092;-73
2023/01/18 10:52:43;;;;;;;10.90;6.00;;;2.60;99.90;;;;;;5076261;28;20127;-74
2023/01/18 10:55:14;;;;;;;9.40;5.47;;;2.70;99.90;;;;;;5093132;28;20114;-74
2023/01/18 10:57:46;;;;;;;7.00;4.90;;;2.80;99.90;;;;;;5100614;27;20039;-74
2023/01/18 11:00:21;;;;;;;11.20;5.43;;;3.10;99.90;;;;;;5113856;27;20043;-74
2023/01/18 11:02:49;;;;;;;7.05;5.22;;;3.20;99.90;;;;;;5106566;28;20043;-74
2023/01/18 11:05:21;;;;;;;9.43;5.20;;;3.30;99.90;;;;;;5085640;27;20104;-74
2023/01/18 11:08:07;;;;;;;8.18;4.80;;;3.40;99.90;;;;;;5085190;27;20576;-74
2023/01/18 11:10:36;;;;;;;10.65;5.32;;;3.60;99.90;;;;;;5110896;27;20055;-74
2023/01/18 11:13:21;;;;;;;7.47;4.80;;;3.70;99.90;;;;;;5078209;27;20043;-74
2023/01/18 11:15:47;;;;;;;8.25;4.47;;;3.90;99.90;;;;;;5073834;28;20031;-74
2023/01/18 11:18:12;;;;;;;6.82;4.68;;;4.00;99.90;;;;;;5087865;27;20574;-74
2023/01/18 11:20:48;;;;;;;8.10;4.75;;;4.30;99.90;;;;;;5083587;28;20040;-74
2023/01/18 11:23:24;;;;;;;8.98;4.65;;;4.40;96.90;;;;;;5076805;27;20118;-74
2023/01/18 11:25:51;;;;;;;6.75;4.57;;;4.50;96.90;;;;;;5097733;28;20435;-74
2023/01/18 11:28:22;;;;;;;6.93;4.45;;;4.60;95.20;;;;;;5091398;28;20084;-74
2023/01/18 11:30:55;;;;;;;5.65;4.43;;;4.80;95.40;;;;;;5074948;28;20119;-74
2023/01/18 11:33:24;;;;;;;8.13;4.93;;;5.00;94.70;;;;;;5100694;28;20071;-74
2023/01/18 11:35:57;;;;;;;7.97;4.57;;;4.90;91.50;;;;;;5091543;28;20051;-74
2023/01/18 11:38:32;;;;;;;7.70;4.35;;;5.00;92.10;;;;;;5092439;28;20044;-74
2023/01/18 11:41:10;;;;;;;8.25;4.63;;;4.80;92.50;;;;;;5092494;28;20114;-74
2023/01/18 11:43:38;;;;;;;6.80;4.47;;;4.70;91.80;;;;;;5093021;28;20461;-74
2023/01/18 11:46:33;;;;;;;6.72;4.40;;;4.80;91.50;;;;;;5082194;28;20502;-74
2023/01/18 11:49:28;;;;;;;8.25;3.88;;;4.90;90.60;;;;;;5083891;28;20036;-73
2023/01/18 11:52:01;;;;;;;6.60;3.95;;;5.00;90.50;;;;;;5065431;28;20055;-74
2023/01/18 11:54:32;;;;;;;6.18;3.70;;;5.00;88.90;;;;;;5085850;28;20054;-74
2023/01/18 11:57:01;;;;;;;7.43;3.72;;;5.20;88.70;;;;;;5074619;28;20043;-74
2023/01/18 11:59:30;;;;;;;6.18;4.13;;;5.20;86.20;;;;;;5107775;28;20100;-74
2023/01/18 12:02:19;;;;;;;6.20;4.00;;;5.20;84.10;;;;;;5092341;28;20556;-74
2023/01/18 12:05:06;;;;;;;7.88;3.70;;;5.20;86.00;;;;;;5092757;28;20119;-74
2023/01/18 12:07:59;;;;;;;6.78;4.50;;;5.20;85.00;;;;;;5091889;28;20047;-74
2023/01/18 12:10:32;;;;;;;8.48;4.13;;;5.30;88.40;;;;;;5074833;28;20032;-74
2023/01/18 12:13:04;;;;;;;6.20;4.07;;;5.20;85.90;;;;;;5101362;28;20056;-74
2023/01/18 12:15:50;;;;;;;5.38;3.97;;;5.20;86.40;;;;;;5072175;28;20388;-74
2023/01/18 12:18:37;;;;;;;6.90;3.80;;;5.20;83.70;;;;;;5073490;28;20120;-73
2023/01/18 12:21:06;;;;;;;6.18;4.10;;;5.30;86.50;;;;;;5091836;28;20039;-74
2023/01/18 12:24:02;;;;;;;6.00;3.65;;;5.20;82.50;;;;;;5095435;28;20090;-74
2023/01/18 12:26:50;;;;;;;6.72;3.72;;;5.00;84.00;;;;;;5071747;28;20074;-73
2023/01/18 12:29:25;;;;;;;6.00;3.65;;;5.10;82.30;;;;;;5091734;28;20115;-73
2023/01/18 12:32:47;;;;;;;7.60;3.75;;;5.20;84.10;;;;;;5075350;28;20051;-74
2023/01/18 12:35:31;;;;;;;6.28;3.45;;;5.40;83.40;;;;;;5001151;28;20046;-73
2023/01/18 12:38:16;;;;;;;7.03;3.50;;;5.30;79.30;;;;;;5006178;28;20054;-73
2023/01/18 12:40:41;;;;;;;5.00;3.20;;;5.40;78.40;;;;;;5094128;28;20386;-73
2023/01/18 12:43:23;;;;;;;7.67;3.43;;;5.50;79.50;;;;;;5111067;28;20108;-73
2023/01/18 12:46:00;;;;;;;5.63;3.25;;;5.50;78.90;;;;;;5077697;28;20342;-72
2023/01/18 12:48:30;;;;;;;;;;;5.50;75.90;;;;;;5095296;28;20052;-74
2023/01/18 12:50:59;;;;;;;7.75;3.78;;;5.60;76.00;;;;;;5093636;28;20343;-77
2023/01/18 12:53:45;;;;;;;4.28;3.00;;;5.60;75.00;;;;;;5084428;27;20054;-73
2023/01/18 12:56:16;;;;;;;5.85;3.60;;;5.70;78.10;;;;;;5078256;28;20044;-74
2023/01/18 12:58:42;;;;;;;5.00;3.22;;;5.70;74.80;;;;;;5094892;28;20067;-73
2023/01/18 13:01:18;;;;;;;5.50;3.25;;;5.70;74.90;;;;;;5098970;27;20470;-73
2023/01/18 13:03:48;;;;;;;5.40;2.97;;;5.70;76.20;;;;;;5097815;28;20047;-74
2023/01/18 13:06:15;;;;;;;5.05;3.38;;;5.50;72.90;;;;;;5093657;28;20082;-74
2023/01/18 13:09:03;;;;;;;7.45;3.10;;;5.30;73.30;;;;;;5097558;27;20054;-73
2023/01/18 13:11:36;;;;;;;5.53;3.40;;;5.10;76.30;;;;;;5126791;27;20487;-73
2023/01/18 13:14:39;;;;;;;6.20;3.90;;;4.90;78.20;;;;;;5092942;27;20407;-73
2023/01/18 13:17:26;;;;;;;5.53;3.35;;;4.70;81.40;;;;;;5095537;28;20133;-74
2023/01/18 13:20:10;;;;;;;5.15;3.33;;;4.50;82.40;;;;;;5090843;28;20313;-73
2023/01/18 13:23:06;;;;;;;7.57;3.30;;;4.40;84.60;;;;;;5090826;28;20039;-73
2023/01/18 13:25:54;;;;;;;7.00;3.05;;;4.40;85.90;;;;;;5071187;28;20134;-74
2023/01/18 13:28:23;;;;;;;5.85;3.35;;;4.40;87.20;;;;;;5089477;28;20127;-74
2023/01/18 13:31:01;;;;;;;3.80;2.80;;;4.40;88.60;;;;;;5094793;28;20051;-73
2023/01/18 13:33:31;;;;;;;4.22;2.95;;;4.40;88.40;;;;;;5090846;28;20044;-74
2023/01/18 13:36:08;;;;;;;6.95;3.08;;;4.40;89.60;;;;;;5092303;28;20090;-73
2023/01/18 13:38:38;;;;;;;6.55;3.22;;;4.50;89.30;;;;;;5089785;28;20051;-73
2023/01/18 13:41:10;;;;;;;5.82;3.13;;;4.40;90.00;;;;;;5099213;28;20067;-74
2023/01/18 13:43:36;;;;;;;8.05;3.20;;;4.40;90.00;;;;;;5091339;27;20105;-74
2023/01/18 13:46:05;;;;;;;6.53;3.40;;;4.40;89.60;;;;;;5085494;27;20938;-74